Time;durP1;ratioP1;P1;durP2;ratioP2;P2;SDS_P1;SDS_P2;PMS_P1;PMS_P2;Temp;Humidity;BMP_temperature;BMP_pressure;BME280_temperature;BME280_humidity;BME280_pressure;Samples;Min_cycle;Max_cycle;Signal;HPM_P1;HPM_P2
2021/11/07 00:03:24;;;;;;;1.17;1.08;;;1.10;1.40;;;1.81;100.00;96099.90;646992;216;31549;-71
2021/11/07 00:06:10;;;;;;;2.80;1.90;;;1.10;1.40;;;1.87;100.00;96095.84;652120;216;31554;-71
2021/11/07 00:11:03;;;;;;;1.67;1.40;;;1.20;1.40;;;1.89;100.00;96115.02;648025;216;42232;-71
2021/11/07 00:13:42;;;;;;;2.50;1.60;;;1.20;1.40;;;1.97;100.00;96116.59;648157;212;31600;-71
2021/11/07 00:16:25;;;;;;;19.10;2.40;;;1.20;1.40;;;2.00;100.00;96112.28;648698;213;31596;-71
2021/11/07 00:21:24;;;;;;;1.33;1.00;;;1.30;1.40;;;2.10;100.00;96126.48;647755;215;31566;-70
2021/11/07 00:24:05;;;;;;;1.30;1.25;;;1.30;1.40;;;2.28;100.00;96137.37;647701;216;31819;-71
2021/11/07 00:27:03;;;;;;;4.05;2.97;;;1.40;1.40;;;2.36;100.00;96136.69;645731;216;31950;-69
2021/11/07 00:29:49;;;;;;;2.92;1.12;;;1.50;1.40;;;2.33;100.00;96127.67;649033;216;31584;-69
2021/11/07 00:32:32;;;;;;;1.77;1.05;;;1.50;1.40;;;2.34;100.00;96123.27;646711;216;31577;-71
2021/11/07 00:36:06;;;;;;;1.70;1.60;;;1.40;1.40;;;2.34;100.00;96134.39;630511;217;42708;-71
2021/11/07 00:38:47;;;;;;;5.05;1.55;;;1.40;1.40;;;2.19;100.00;96139.84;644097;216;31534;-71
2021/11/07 00:41:33;;;;;;;2.00;1.90;;;1.40;1.40;;;2.20;100.00;96142.84;618599;226;32362;-70
2021/11/07 00:44:12;;;;;;;2.03;1.73;;;1.40;1.40;;;2.28;100.00;96138.28;645949;212;31579;-70
2021/11/07 00:46:54;;;;;;;1.45;1.00;;;1.50;1.40;;;2.24;100.00;96129.01;618893;226;31837;-69
2021/11/07 00:49:35;;;;;;;0.90;0.90;;;1.50;1.40;;;2.34;100.00;96138.41;646509;216;31690;-70
2021/11/07 00:52:20;;;;;;;2.12;1.12;;;1.50;1.40;;;2.33;100.00;96143.31;650652;216;31640;-69
2021/11/07 00:55:03;;;;;;;3.40;2.10;;;1.60;1.40;;;2.39;100.00;96148.20;647952;212;32786;-70
2021/11/07 00:57:48;;;;;;;2.22;2.03;;;1.60;1.40;;;2.42;100.00;96149.63;646523;212;31595;-69
2021/11/07 01:00:34;;;;;;;1.23;1.10;;;1.70;1.40;;;2.45;100.00;96144.61;644773;216;31601;-71
2021/11/07 01:03:02;;;;;;;3.90;1.58;;;1.60;1.40;;;2.57;100.00;96144.96;620602;222;31978;-70
2021/11/07 01:05:43;;;;;;;4.80;2.00;;;1.70;1.40;;;2.58;100.00;96146.20;644187;216;31734;-71
2021/11/07 01:08:25;;;;;;;1.50;1.00;;;1.70;1.40;;;2.58;100.00;96153.91;649189;216;31625;-69
2021/11/07 01:11:09;;;;;;;3.62;2.30;;;1.70;1.40;;;2.59;100.00;96159.08;648790;216;32177;-71
2021/11/07 01:13:51;;;;;;;4.30;2.00;;;1.70;1.40;;;2.53;100.00;96162.91;646734;216;33404;-71
2021/11/07 01:16:36;;;;;;;1.80;1.70;;;1.70;1.40;;;2.48;100.00;96152.00;644619;212;32372;-71
2021/11/07 01:19:17;;;;;;;4.10;2.20;;;1.70;1.40;;;2.61;100.00;96146.56;649130;212;32064;-69
2021/11/07 01:22:02;;;;;;;3.10;2.90;;;1.70;1.40;;;2.70;100.00;96144.45;646847;212;32197;-71
2021/11/07 01:24:49;;;;;;;2.00;1.90;;;1.70;1.40;;;2.58;100.00;96133.09;648049;216;40747;-69
2021/11/07 01:27:33;;;;;;;2.90;1.50;;;1.70;1.40;;;2.59;100.00;96132.59;644376;212;32184;-70
2021/11/07 01:30:15;;;;;;;2.87;1.83;;;1.70;1.40;;;2.68;100.00;96134.70;645036;212;31600;-70
2021/11/07 01:32:59;;;;;;;3.45;2.75;;;1.70;1.40;;;2.72;100.00;96130.68;646498;216;32143;-69
2021/11/07 01:36:05;;;;;;;;;;;1.80;1.40;;;2.59;100.00;96126.48;657936;216;24801;-71
2021/11/07 01:38:48;;;;;;;;;;;1.70;1.40;;;2.57;100.00;96125.38;653955;216;24814;-70
2021/11/07 01:41:29;;;;;;;;;;;1.70;1.40;;;2.59;100.00;96107.48;656348;216;24802;-71
2021/11/07 01:44:06;;;;;;;;;;;1.70;1.40;;;2.54;100.00;96100.64;652809;216;24826;-70
2021/11/07 01:46:51;;;;;;;;;;;1.70;1.40;;;2.44;100.00;96097.55;654585;216;24803;-70
2021/11/07 01:49:35;;;;;;;;;;;1.60;1.40;;;2.39;100.00;96089.61;656024;212;24908;-71
2021/11/07 01:52:10;;;;;;;;;;;1.70;1.40;;;2.49;100.00;96099.84;656322;212;24822;-69
2021/11/07 01:54:54;;;;;;;;;;;1.70;1.40;;;2.45;100.00;96095.31;654244;212;25247;-69
2021/11/07 01:57:32;;;;;;;;;;;1.60;1.40;;;2.30;100.00;96094.83;654711;212;24726;-70
2021/11/07 02:00:17;;;;;;;;;;;1.60;1.40;;;2.33;100.00;96077.40;654260;216;24796;-71
2021/11/07 02:02:59;;;;;;;;;;;1.60;1.40;;;2.41;100.00;96068.58;653759;212;24816;-71
2021/11/07 02:05:40;;;;;;;;;;;1.60;1.40;;;2.48;100.00;96073.22;652432;212;24828;-71
2021/11/07 02:08:21;;;;;;;;;;;1.70;1.40;;;2.52;100.00;96084.48;651711;212;24821;-71
2021/11/07 02:11:06;;;;;;;;;;;1.70;1.40;;;2.45;100.00;96085.05;652747;212;24733;-69
2021/11/07 02:13:49;;;;;;;;;;;1.70;1.40;;;2.40;100.00;96083.31;651360;212;24862;-71
2021/11/07 02:16:33;;;;;;;;;;;1.60;1.40;;;2.41;100.00;96076.42;647824;216;24933;-70
2021/11/07 02:19:16;;;;;;;;;;;1.60;1.40;;;2.30;100.00;96076.91;651597;212;24804;-71
2021/11/07 02:21:59;;;;;;;;;;;1.50;1.40;;;2.22;100.00;96059.00;653827;216;25287;-70
2021/11/07 02:24:41;;;;;;;;;;;1.50;1.40;;;2.22;100.00;96060.24;658615;216;24811;-71
2021/11/07 02:27:23;;;;;;;;;;;1.50;1.40;;;2.31;100.00;96053.28;652005;216;24813;-71
2021/11/07 02:30:03;;;;;;;;;;;1.60;1.40;;;2.21;100.00;96051.87;651106;216;24827;-71
2021/11/07 02:32:44;;;;;;;;;;;1.50;1.40;;;2.05;100.00;96034.33;621724;226;24865;-71
2021/11/07 02:35:50;;;;;;;;;;;1.40;1.40;;;1.96;100.00;96032.03;654865;212;25019;-71
2021/11/07 02:38:31;;;;;;;;;;;1.30;1.40;;;1.91;100.00;96029.95;654292;216;25242;-70
2021/11/07 02:41:12;;;;;;;;;;;1.30;1.40;;;1.97;100.00;96046.16;654691;212;24919;-71
2021/11/07 02:43:54;;;;;;;;;;;1.30;1.40;;;1.94;100.00;96037.08;651031;216;24910;-69
2021/11/07 02:46:38;;;;;;;;;;;1.30;1.40;;;1.91;100.00;96027.81;658023;216;24833;-69
2021/11/07 02:49:19;;;;;;;;;;;1.30;1.40;;;1.91;100.00;96032.08;652400;216;25075;-70
2021/11/07 02:52:01;;;;;;;;;;;1.30;1.40;;;1.93;100.00;96035.56;655500;212;25390;-71
2021/11/07 02:54:42;;;;;;;;;;;1.30;1.40;;;1.97;100.00;96023.77;657209;216;24828;-71
2021/11/07 02:57:23;;;;;;;;;;;1.30;1.40;;;2.02;100.00;96014.77;654889;216;24941;-71
2021/11/07 03:00:06;;;;;;;;;;;1.30;1.40;;;2.02;100.00;96005.84;654773;216;24831;-70
2021/11/07 03:02:47;;;;;;;;;;;1.40;1.40;;;2.02;100.00;95994.94;656211;212;24924;-71
2021/11/07 03:05:29;;;;;;;;;;;1.40;1.40;;;1.92;100.00;96000.14;652756;212;24956;-71
2021/11/07 03:08:10;;;;;;;;;;;1.30;1.40;;;1.99;100.00;95997.50;656025;216;25013;-72
2021/11/07 03:10:51;;;;;;;;;;;1.40;1.40;;;2.05;100.00;95987.21;642048;221;24994;-70
2021/11/07 03:13:32;;;;;;;;;;;1.40;1.40;;;2.06;100.00;95983.87;654858;216;25279;-71
2021/11/07 03:16:17;;;;;;;;;;;1.40;1.40;;;2.04;100.00;95985.24;654148;216;24928;-71
2021/11/07 03:18:58;;;;;;;;;;;1.30;1.40;;;2.01;100.00;95970.20;657098;216;24906;-71
2021/11/07 03:21:40;;;;;;;;;;;1.40;1.40;;;1.98;100.00;95969.20;652063;216;25516;-70
2021/11/07 03:24:21;;;;;;;;;;;1.30;1.40;;;2.04;100.00;95980.91;654640;216;25377;-71
2021/11/07 03:27:08;;;;;;;;;;;1.30;1.40;;;2.05;100.00;95973.89;657426;216;25369;-71
2021/11/07 03:29:46;;;;;;;;;;;1.30;1.40;;;2.00;100.00;95973.23;652387;212;25426;-71
2021/11/07 03:32:34;;;;;;;;;;;1.40;1.40;;;1.94;100.00;95971.69;653196;216;24853;-71
2021/11/07 03:35:51;;;;;;;1.10;1.10;;;1.30;1.40;;;2.01;100.00;95985.72;648580;212;31554;-71
2021/11/07 03:38:33;;;;;;;2.20;2.00;;;1.30;1.40;;;2.10;100.00;96008.45;649696;212;42106;-71
2021/11/07 03:41:14;;;;;;;4.00;2.70;;;1.40;1.40;;;2.17;100.00;96012.90;645116;212;31787;-70
2021/11/07 03:43:56;;;;;;;6.12;3.42;;;1.40;1.40;;;2.30;100.00;96002.65;647071;212;32027;-71
2021/11/07 03:46:38;;;;;;;3.20;1.80;;;1.50;1.40;;;2.30;100.00;95994.58;647044;216;31841;-69
2021/11/07 03:49:19;;;;;;;3.97;2.12;;;1.50;1.40;;;2.43;100.00;95986.06;646654;216;32663;-70
2021/11/07 03:52:03;;;;;;;2.83;1.30;;;1.50;1.40;;;2.32;100.00;95980.70;653305;216;31601;-71
2021/11/07 03:54:45;;;;;;;4.85;1.67;;;1.50;1.40;;;2.42;100.00;95970.59;647365;216;31543;-70
2021/11/07 03:57:27;;;;;;;2.45;2.25;;;1.50;1.40;;;2.43;100.00;95962.80;649624;216;31711;-71
2021/11/07 04:00:12;;;;;;;2.00;1.90;;;1.50;1.40;;;2.25;100.00;95954.89;649348;216;31582;-70
2021/11/07 04:02:54;;;;;;;4.62;1.45;;;1.40;1.40;;;2.39;100.00;95957.02;644881;216;31631;-70
2021/11/07 04:05:36;;;;;;;1.40;0.90;;;1.50;1.40;;;2.17;100.00;95955.31;646155;212;31577;-70
2021/11/07 04:10:55;;;;;;;2.65;2.10;;;1.40;1.40;;;2.24;100.00;95936.79;646109;216;42340;-68
2021/11/07 04:13:39;;;;;;;3.17;2.42;;;1.30;1.40;;;2.11;100.00;95930.69;647538;216;31499;-70
2021/11/07 04:16:18;;;;;;;2.00;1.12;;;1.20;1.40;;;2.06;100.00;95927.60;650351;216;31950;-70
2021/11/07 04:19:00;;;;;;;4.50;2.40;;;1.20;1.40;;;1.95;100.00;95926.09;645648;212;31711;-68
2021/11/07 04:21:48;;;;;;;2.03;1.83;;;1.10;1.40;;;1.83;100.00;95928.12;649876;216;31553;-71
2021/11/07 04:24:26;;;;;;;2.72;2.53;;;1.10;1.40;;;1.88;100.00;95924.62;650940;212;31498;-69
2021/11/07 04:27:08;;;;;;;2.67;1.95;;;1.10;1.40;;;1.94;100.00;95922.39;644654;216;32144;-71
2021/11/07 04:29:50;;;;;;;1.90;1.70;;;1.10;1.40;;;1.93;100.00;95930.59;646411;216;31623;-71
2021/11/07 04:32:31;;;;;;;1.00;1.00;;;1.10;1.40;;;1.80;100.00;95926.42;648333;216;31633;-70
2021/11/07 04:35:50;;;;;;;1.67;1.55;;;1.10;1.40;;;2.00;100.00;95921.20;647239;216;31583;-71
2021/11/07 04:38:34;;;;;;;3.17;1.40;;;1.10;1.40;;;1.79;100.00;95915.44;648179;216;31572;-71
2021/11/07 04:41:18;;;;;;;2.50;1.55;;;1.00;1.40;;;1.73;100.00;95919.22;642171;212;32334;-71
2021/11/07 04:43:58;;;;;;;1.37;1.08;;;1.00;1.40;;;1.66;100.00;95908.27;648105;216;31611;-71
2021/11/07 04:46:43;;;;;;;2.70;1.70;;;0.90;1.40;;;1.49;100.00;95904.77;647334;216;31535;-71
2021/11/07 04:49:24;;;;;;;2.35;2.15;;;0.70;1.40;;;1.32;100.00;95912.93;651359;212;31540;-71
2021/11/07 04:52:06;;;;;;;1.45;1.35;;;0.60;1.40;;;1.19;100.00;95922.45;618369;222;31872;-71
2021/11/07 04:54:48;;;;;;;2.17;1.10;;;0.50;1.40;;;1.15;100.00;95936.80;648552;216;31567;-73
2021/11/07 04:57:30;;;;;;;2.90;1.70;;;0.30;1.40;;;1.03;100.00;95937.99;644438;212;31696;-71
2021/11/07 05:00:16;;;;;;;3.00;1.23;;;0.20;1.40;;;1.00;100.00;95942.19;648719;216;33013;-71
2021/11/07 05:02:57;;;;;;;0.80;0.60;;;0.20;1.40;;;1.14;100.00;95941.84;646929;212;32045;-71
2021/11/07 05:05:39;;;;;;;4.87;1.10;;;0.20;1.40;;;1.04;100.00;95947.52;649630;212;32728;-71
2021/11/07 05:08:20;;;;;;;0.90;0.62;;;0.20;1.40;;;0.94;100.00;95953.58;645374;212;32178;-72
2021/11/07 05:11:05;;;;;;;1.20;0.90;;;0.20;1.40;;;0.90;100.00;95960.61;646589;216;31549;-69
2021/11/07 05:13:47;;;;;;;1.17;1.08;;;0.30;1.40;;;1.01;100.00;95966.51;646456;216;32807;-71
2021/11/07 05:16:28;;;;;;;3.37;1.20;;;0.30;1.40;;;0.95;100.00;95966.09;620270;222;42834;-71
2021/11/07 05:19:11;;;;;;;2.87;1.60;;;0.30;1.40;;;0.77;100.00;95959.06;646985;216;31936;-71
2021/11/07 05:21:52;;;;;;;1.13;1.03;;;0.20;1.40;;;0.70;100.00;95944.26;647655;216;31558;-71
2021/11/07 05:24:33;;;;;;;4.30;0.70;;;0.10;1.40;;;0.77;100.00;95949.61;648253;212;31592;-71
2021/11/07 05:27:15;;;;;;;1.33;0.75;;;0.10;1.40;;;0.78;100.00;95951.95;644596;212;31538;-71
2021/11/07 05:29:57;;;;;;;1.43;0.87;;;0.10;1.40;;;0.76;100.00;95954.88;651464;212;31526;-71
2021/11/07 05:32:38;;;;;;;1.50;1.20;;;0.00;1.40;;;0.63;100.00;95954.91;645552;216;31619;-71
2021/11/07 05:35:51;;;;;;;1.73;0.77;;;-0.10;1.40;;;0.67;100.00;95949.67;647209;216;32205;-71
2021/11/07 05:38:33;;;;;;;2.17;1.98;;;0.00;1.40;;;0.56;100.00;95954.48;646274;216;32097;-70
2021/11/07 05:41:17;;;;;;;1.40;0.60;;;-0.10;1.40;;;0.60;100.00;95956.88;645637;216;42339;-70
2021/11/07 05:43:59;;;;;;;1.10;0.90;;;0.00;1.40;;;0.83;100.00;95958.95;646912;212;31603;-71
2021/11/07 05:46:41;;;;;;;1.20;0.80;;;0.10;1.40;;;1.01;100.00;95955.66;648106;212;31636;-71
2021/11/07 05:49:23;;;;;;;2.00;1.40;;;0.20;1.40;;;1.14;100.00;95959.78;647727;216;31936;-71
2021/11/07 05:52:04;;;;;;;1.30;1.20;;;0.40;1.40;;;1.24;100.00;95957.77;648338;216;31779;-71
2021/11/07 05:54:46;;;;;;;2.03;1.92;;;0.50;1.40;;;1.16;100.00;95945.72;643830;216;31590;-74
2021/11/07 05:57:28;;;;;;;3.50;1.58;;;0.50;1.40;;;1.08;100.00;95937.61;647787;216;31677;-70
2021/11/07 06:00:14;;;;;;;1.30;1.10;;;0.50;1.40;;;1.05;100.00;95931.41;644837;212;42128;-71
2021/11/07 06:02:55;;;;;;;1.25;1.12;;;0.60;1.40;;;1.15;100.00;95923.86;617120;226;32018;-71
2021/11/07 06:05:37;;;;;;;1.60;1.02;;;0.60;1.40;;;1.28;100.00;95917.03;645634;216;42225;-71
2021/11/07 06:08:19;;;;;;;3.20;1.20;;;0.60;1.40;;;1.24;100.00;95909.26;646242;216;31778;-71
2021/11/07 06:11:00;;;;;;;3.10;1.55;;;0.60;1.40;;;1.19;100.00;95890.48;648301;216;31561;-71
2021/11/07 06:13:42;;;;;;;0.88;0.88;;;0.60;1.40;;;1.10;100.00;95873.38;645692;216;42170;-71
2021/11/07 06:16:24;;;;;;;1.95;1.75;;;0.60;1.40;;;1.20;100.00;95876.45;647923;216;31933;-70
2021/11/07 06:19:06;;;;;;;1.40;1.30;;;0.70;1.40;;;1.26;100.00;95863.59;648096;216;31685;-71
2021/11/07 06:21:49;;;;;;;3.60;2.03;;;0.70;1.40;;;1.21;100.00;95846.19;647526;212;32179;-71
2021/11/07 06:24:29;;;;;;;1.30;1.17;;;0.70;1.40;;;1.26;100.00;95841.64;648022;216;42783;-70
2021/11/07 06:27:10;;;;;;;1.93;1.83;;;0.80;1.40;;;1.38;100.00;95839.06;648421;216;32230;-71
2021/11/07 06:29:52;;;;;;;3.30;1.52;;;0.90;1.40;;;1.59;100.00;95848.55;629082;221;31723;-71
2021/11/07 06:32:34;;;;;;;2.10;1.90;;;1.00;1.40;;;1.53;100.00;95879.52;647593;216;31515;-71
2021/11/07 06:35:51;;;;;;;2.25;1.50;;;0.90;1.40;;;1.43;100.00;95892.32;648262;216;31651;-71
2021/11/07 06:38:33;;;;;;;2.15;1.92;;;0.90;1.40;;;1.51;100.00;95878.20;616524;226;31890;-71
2021/11/07 06:41:15;;;;;;;5.18;2.10;;;0.90;1.40;;;1.53;100.00;95902.45;644860;212;31760;-71
2021/11/07 06:43:57;;;;;;;2.00;1.90;;;1.00;1.40;;;1.58;100.00;95905.27;647079;212;31572;-71
2021/11/07 06:46:38;;;;;;;2.80;2.60;;;1.00;1.40;;;1.65;100.00;95894.45;646305;216;31592;-71
2021/11/07 06:49:20;;;;;;;2.40;1.45;;;1.00;1.40;;;1.77;100.00;95899.27;647198;212;31535;-71
2021/11/07 06:52:03;;;;;;;6.40;2.40;;;1.10;1.40;;;1.90;100.00;95903.86;646451;216;31772;-71
2021/11/07 06:54:43;;;;;;;2.70;1.80;;;1.30;1.40;;;1.80;100.00;95913.58;651241;216;31677;-71
2021/11/07 06:57:25;;;;;;;4.12;2.05;;;1.20;1.40;;;1.86;100.00;95926.20;647481;212;31761;-71
2021/11/07 07:00:10;;;;;;;4.57;1.73;;;1.30;1.40;;;1.85;100.00;95936.14;610946;230;32184;-70
2021/11/07 07:02:52;;;;;;;2.10;2.00;;;1.30;1.40;;;1.82;100.00;95939.56;647939;216;31532;-71
2021/11/07 07:05:34;;;;;;;2.20;1.60;;;1.20;1.40;;;1.90;100.00;95935.35;644895;216;31554;-71
2021/11/07 07:08:20;;;;;;;4.03;2.40;;;1.30;1.40;;;1.90;100.00;95936.38;647297;216;31599;-71
2021/11/07 07:11:01;;;;;;;2.85;1.92;;;1.30;1.40;;;2.01;100.00;95933.32;645813;216;31546;-71
2021/11/07 07:13:53;;;;;;;2.00;1.40;;;1.30;1.40;;;2.01;100.00;95936.31;647729;216;31569;-71
2021/11/07 07:16:36;;;;;;;4.18;3.22;;;1.40;1.40;;;2.08;100.00;95921.48;648548;212;31636;-71
2021/11/07 07:22:26;;;;;;;3.50;3.20;;;1.30;1.40;;;2.19;100.00;95924.47;649499;216;31598;-71
2021/11/07 07:30:48;;;;;;;2.75;1.87;;;1.70;1.40;;;2.62;100.00;95911.86;647280;212;31787;-71
2021/11/07 07:35:56;;;;;;;3.47;2.12;;;1.90;1.40;;;2.57;100.00;95905.23;649650;216;31906;-71
2021/11/07 07:38:36;;;;;;;1.62;1.52;;;1.80;1.40;;;2.64;100.00;95894.08;620283;222;31949;-71
2021/11/07 07:41:18;;;;;;;4.05;2.42;;;2.00;1.40;;;2.75;100.00;95898.38;642614;216;31735;-71
2021/11/07 07:44:07;;;;;;;2.50;1.92;;;2.10;1.40;;;2.99;100.00;95880.14;648169;216;31578;-71
2021/11/07 07:46:45;;;;;;;2.50;1.80;;;2.20;1.40;;;3.16;100.00;95881.45;647203;216;31551;-70
2021/11/07 07:49:27;;;;;;;1.80;1.70;;;2.30;1.40;;;2.99;100.00;95873.19;645015;216;31788;-71
2021/11/07 07:52:08;;;;;;;2.70;2.00;;;2.20;1.40;;;2.82;100.00;95868.31;633054;221;31822;-72
2021/11/07 07:54:50;;;;;;;2.97;1.62;;;2.10;1.40;;;2.85;100.00;95863.48;646649;212;31836;-71
2021/11/07 07:57:31;;;;;;;2.50;2.30;;;2.20;1.40;;;2.87;100.00;95854.63;644886;216;34719;-71
2021/11/07 08:00:15;;;;;;;1.70;1.60;;;2.20;1.40;;;2.84;100.00;95856.13;647150;212;31655;-71
2021/11/07 08:02:56;;;;;;;5.70;2.03;;;2.20;1.40;;;2.91;100.00;95852.64;648269;216;31662;-71
2021/11/07 08:05:38;;;;;;;1.90;1.80;;;2.30;1.40;;;3.15;100.00;95855.30;647332;216;31538;-71
2021/11/07 08:08:19;;;;;;;2.30;2.20;;;2.60;1.40;;;3.27;100.00;95853.17;646765;216;31538;-71
2021/11/07 08:11:01;;;;;;;2.67;1.50;;;2.60;1.40;;;3.42;100.00;95850.13;646285;212;31590;-71
2021/11/07 08:13:50;;;;;;;3.25;1.40;;;2.80;1.40;;;3.46;100.00;95841.86;646409;216;31560;-71
2021/11/07 08:16:31;;;;;;;2.33;2.08;;;2.90;1.40;;;3.52;100.00;95846.98;646076;216;31600;-71
2021/11/07 08:19:11;;;;;;;2.10;1.90;;;2.90;1.40;;;3.44;100.00;95848.22;644506;216;31568;-71
2021/11/07 08:21:53;;;;;;;1.80;1.20;;;2.90;1.40;;;3.78;100.00;95834.23;647617;212;31559;-71
2021/11/07 08:24:36;;;;;;;1.92;1.83;;;3.20;1.40;;;3.85;100.00;95829.97;647710;212;31549;-72
2021/11/07 08:27:16;;;;;;;2.50;1.40;;;3.20;1.40;;;3.94;100.00;95835.45;649321;213;31541;-71
2021/11/07 08:29:58;;;;;;;1.30;1.20;;;3.30;1.40;;;4.12;100.00;95839.36;649802;216;31917;-71
2021/11/07 08:32:40;;;;;;;2.20;2.00;;;3.50;1.40;;;4.23;100.00;95838.55;648433;216;31536;-71
2021/11/07 08:35:51;;;;;;;1.70;1.60;;;3.60;1.40;;;4.36;100.00;95823.98;650465;212;31590;-71
2021/11/07 08:38:38;;;;;;;2.00;1.90;;;3.90;1.40;;;4.53;100.00;95836.48;647458;212;31600;-71
2021/11/07 08:41:16;;;;;;;2.72;2.53;;;4.10;1.40;;;5.18;100.00;95838.07;644571;216;31717;-70
2021/11/07 09:01:01;;;;;;;2.97;2.13;;;10.10;1.40;;;10.65;85.67;95820.12;644769;212;31668;-71
2021/11/07 09:03:45;;;;;;;2.25;2.00;;;10.40;1.40;;;10.78;84.12;95809.23;647904;216;31686;-69
2021/11/07 09:06:35;;;;;;;2.55;1.90;;;10.20;1.40;;;11.30;80.63;95797.20;646887;216;40144;-70
2021/11/07 09:09:08;;;;;;;2.25;1.80;;;11.30;1.40;;;12.67;76.96;95792.86;652051;216;31598;-69
2021/11/07 09:11:51;;;;;;;2.22;1.70;;;12.00;1.40;;;12.18;74.76;95793.82;651469;216;32026;-70
2021/11/07 09:14:34;;;;;;;2.20;1.58;;;11.40;1.40;;;10.65;78.22;95788.95;648715;216;31602;-69
2021/11/07 09:17:12;;;;;;;2.30;1.48;;;9.30;1.40;;;11.06;78.90;95768.00;647118;212;31622;-69
2021/11/07 09:19:56;;;;;;;2.50;1.80;;;9.90;1.40;;;10.49;79.51;95757.13;620342;222;32521;-68
2021/11/07 09:22:42;;;;;;;1.83;1.40;;;9.10;1.40;;;11.01;80.55;95750.52;619662;226;31989;-69
2021/11/07 09:25:24;;;;;;;2.92;1.80;;;10.40;1.40;;;11.93;74.46;95736.99;645869;212;31977;-69
2021/11/07 09:30:56;;;;;;;2.10;1.50;;;10.90;1.40;;;11.36;74.22;95726.48;644852;212;31693;-69
2021/11/07 09:36:11;;;;;;;1.40;1.30;;;11.10;1.40;;;10.91;71.67;95714.58;648411;212;31593;-69
2021/11/07 09:41:37;;;;;;;1.40;1.20;;;10.60;1.40;;;12.95;69.68;95701.39;643046;216;31651;-69
2021/11/07 09:44:17;;;;;;;2.07;1.53;;;11.80;1.40;;;12.05;67.28;95701.52;646210;212;31876;-69
2021/11/07 09:47:00;;;;;;;1.70;1.43;;;10.90;1.40;;;12.53;69.68;95693.52;644180;216;31885;-69
2021/11/07 09:49:52;;;;;;;1.50;1.30;;;11.20;1.40;;;11.76;67.35;95687.87;646378;216;31675;-70
2021/11/07 09:52:38;;;;;;;2.80;1.05;;;10.00;1.40;;;11.85;69.89;95695.21;645841;212;31520;-69
2021/11/07 09:55:15;;;;;;;2.17;1.10;;;10.90;1.40;;;12.36;71.22;95687.77;645487;216;32099;-70
2021/11/07 09:57:58;;;;;;;1.27;1.00;;;10.90;1.40;;;12.14;65.90;95691.42;644544;216;32194;-70
2021/11/07 10:00:42;;;;;;;1.30;0.95;;;10.90;1.40;;;13.26;64.75;95698.81;645819;212;42310;-69
2021/11/07 10:03:21;;;;;;;1.40;1.02;;;12.30;1.40;;;13.65;62.91;95703.53;646413;212;31514;-69
2021/11/07 10:06:03;;;;;;;2.40;1.17;;;11.60;1.40;;;12.18;64.74;95700.58;651885;216;31468;-69
2021/11/07 10:08:44;;;;;;;1.70;1.20;;;10.50;1.40;;;11.17;69.55;95701.81;646766;212;31464;-70
2021/11/07 10:11:33;;;;;;;1.40;1.12;;;9.40;1.40;;;11.15;71.23;95707.63;647546;216;31522;-70
2021/11/07 10:14:17;;;;;;;1.20;0.70;;;9.90;1.40;;;11.67;68.98;95711.42;647285;216;31495;-69
2021/11/07 10:16:57;;;;;;;1.48;0.90;;;10.10;1.40;;;11.76;70.84;95709.39;647979;212;31649;-71
2021/11/07 10:19:40;;;;;;;2.00;1.10;;;10.10;1.40;;;12.03;66.44;95715.47;645523;212;31661;-71
2021/11/07 10:22:21;;;;;;;1.20;0.80;;;10.30;1.40;;;11.34;67.35;95714.34;648290;216;31485;-71
2021/11/07 10:25:06;;;;;;;1.10;0.70;;;9.80;1.40;;;12.02;69.01;95715.00;649996;212;31533;-70
2021/11/07 10:27:48;;;;;;;1.00;0.80;;;11.00;1.40;;;12.88;65.29;95723.23;619439;222;32352;-70
2021/11/07 10:30:27;;;;;;;1.48;1.00;;;11.30;1.40;;;11.04;68.49;95726.02;647493;216;32646;-70
2021/11/07 10:36:31;;;;;;;0.88;0.70;;;8.50;1.40;;;9.68;76.33;95709.42;646553;216;31781;-70
2021/11/07 10:44:34;;;;;;;2.60;0.80;;;9.00;1.40;;;9.77;77.35;95690.61;645031;216;31478;-70
2021/11/07 10:52:47;;;;;;;1.00;0.80;;;9.00;1.40;;;10.29;76.22;95657.76;647853;212;31538;-70
2021/11/07 10:55:27;;;;;;;0.50;0.47;;;8.60;1.40;;;9.79;76.05;95639.63;645616;216;31512;-70
2021/11/07 11:00:45;;;;;;;0.70;0.60;;;7.70;1.40;;;8.74;82.07;95654.76;618322;226;43040;-70
2021/11/07 11:03:26;;;;;;;0.77;0.57;;;7.80;1.40;;;11.29;77.90;95643.87;648975;212;31578;-70
2021/11/07 11:06:11;;;;;;;1.10;0.65;;;12.00;1.40;;;13.78;63.88;95650.77;644244;216;31879;-70
2021/11/07 11:08:54;;;;;;;0.60;0.60;;;13.30;1.40;;;14.72;55.49;95648.23;648599;216;31715;-70
2021/11/07 11:11:44;;;;;;;1.23;1.00;;;14.50;1.40;;;15.66;52.41;95636.00;645907;216;31612;-69
2021/11/07 11:14:29;;;;;;;0.90;0.80;;;13.80;1.40;;;16.20;50.82;95619.95;651277;216;31588;-70
2021/11/07 11:17:26;;;;;;;1.48;0.93;;;14.50;1.40;;;16.46;48.45;95619.84;651578;216;31461;-69
2021/11/07 11:20:05;;;;;;;1.08;0.90;;;13.20;1.40;;;14.78;49.87;95630.89;645848;212;31511;-70
2021/11/07 11:22:58;;;;;;;1.35;0.80;;;12.40;1.40;;;15.09;50.56;95636.61;643491;212;31698;-69
2021/11/07 11:28:37;;;;;;;1.00;0.80;;;14.20;1.40;;;15.70;47.64;95644.92;647479;216;31715;-69
2021/11/07 11:31:24;;;;;;;1.30;0.88;;;13.30;1.40;;;13.83;53.75;95655.70;650199;212;31556;-70
2021/11/07 11:36:01;;;;;;;1.37;0.90;;;12.60;1.40;;;14.21;53.31;95647.13;647807;216;32065;-69
2021/11/07 11:38:38;;;;;;;1.30;0.70;;;13.50;1.40;;;14.25;51.52;95651.56;649346;216;42261;-70
2021/11/07 11:41:23;;;;;;;1.30;0.80;;;12.80;1.40;;;13.35;54.81;95648.57;648138;216;31908;-70
2021/11/07 11:43:56;;;;;;;1.23;0.73;;;12.40;1.40;;;13.73;53.75;95651.41;647393;216;31526;-70
2021/11/07 11:46:58;;;;;;;0.73;0.50;;;12.10;1.40;;;13.09;57.65;95654.05;647954;212;31497;-70
2021/11/07 11:52:36;;;;;;;1.00;0.68;;;12.20;1.40;;;12.92;57.19;95637.41;646530;216;31579;-69
2021/11/07 11:55:28;;;;;;;1.10;0.90;;;11.70;1.40;;;12.08;60.18;95618.21;644290;216;31836;-69
2021/11/07 11:58:18;;;;;;;0.90;0.77;;;11.20;1.40;;;12.28;63.00;95593.20;645645;212;31810;-69
2021/11/07 12:01:03;;;;;;;1.00;0.80;;;11.60;1.40;;;12.58;60.12;95582.09;647466;216;31529;-69
2021/11/07 12:03:56;;;;;;;2.05;1.00;;;12.10;1.40;;;12.85;59.98;95567.08;645528;216;32077;-70
2021/11/07 12:06:34;;;;;;;0.85;0.62;;;12.20;1.40;;;12.52;58.58;95562.63;645259;216;32747;-69
2021/11/07 12:09:28;;;;;;;1.50;0.90;;;11.60;1.40;;;12.82;61.02;95558.70;644889;212;31468;-69
2021/11/07 12:12:11;;;;;;;3.55;2.00;;;12.20;1.40;;;12.92;56.47;95552.63;645730;212;42118;-69
2021/11/07 12:14:57;;;;;;;1.45;0.90;;;12.10;1.40;;;13.45;53.85;95553.41;648569;216;31608;-69
2021/11/07 12:17:37;;;;;;;1.33;0.88;;;12.90;1.40;;;13.74;54.65;95548.54;646266;213;31607;-71
2021/11/07 12:20:28;;;;;;;1.10;0.70;;;12.70;1.40;;;13.76;55.75;95542.77;644060;212;31582;-69
2021/11/07 12:25:47;;;;;;;1.10;0.70;;;13.50;1.40;;;13.77;52.07;95534.56;650171;216;31589;-68
2021/11/07 12:28:48;;;;;;;1.70;0.70;;;12.80;1.40;;;13.34;49.42;95540.97;645516;216;31561;-71
2021/11/07 12:31:31;;;;;;;1.00;0.60;;;12.50;1.40;;;13.40;51.63;95543.48;644982;212;31473;-71
2021/11/07 12:36:05;;;;;;;0.80;0.60;;;12.50;1.40;;;12.70;49.66;95553.22;647440;216;31505;-72
2021/11/07 12:41:23;;;;;;;0.80;0.80;;;12.30;1.40;;;12.98;51.64;95541.48;647738;213;32029;-72
2021/11/07 12:44:08;;;;;;;0.98;0.70;;;12.70;1.40;;;13.14;48.60;95540.21;647327;216;31621;-71
2021/11/07 12:46:55;;;;;;;1.08;0.60;;;12.70;1.40;;;13.42;49.37;95542.02;618706;225;31783;-70
2021/11/07 12:49:31;;;;;;;0.80;0.60;;;13.00;1.40;;;13.26;50.93;95550.05;646701;216;31491;-70
2021/11/07 12:52:16;;;;;;;0.57;0.55;;;12.90;1.40;;;13.69;50.16;95543.41;646004;216;31472;-69
2021/11/07 12:54:55;;;;;;;1.60;0.52;;;13.50;1.40;;;14.42;49.10;95542.95;644990;212;31470;-70
2021/11/07 12:57:37;;;;;;;1.30;0.60;;;14.10;1.40;;;14.90;45.80;95540.02;617301;222;32806;-70
2021/11/07 13:00:18;;;;;;;0.77;0.50;;;13.80;1.40;;;14.48;46.37;95537.48;649541;212;32062;-70
2021/11/07 13:03:09;;;;;;;1.10;0.50;;;13.90;1.40;;;14.28;47.55;95542.64;649664;212;31548;-68
2021/11/07 13:05:52;;;;;;;0.70;0.40;;;12.80;1.40;;;14.26;46.95;95541.85;646293;212;31485;-70
2021/11/07 13:08:42;;;;;;;0.70;0.50;;;12.90;1.40;;;13.91;45.99;95544.93;647266;216;31636;-71